createdAt,value
2023-02-24T00:06:24.698Z,15.17
2023-02-24T00:13:27.877Z,15.30
2023-02-24T00:20:33.480Z,13.67
2023-02-24T00:27:36.978Z,13.00
2023-02-24T00:34:40.554Z,17.10
2023-02-24T00:41:43.893Z,10.40
2023-02-24T00:48:48.042Z,8.40
2023-02-24T00:55:53.100Z,6.30
2023-02-24T01:02:59.358Z,6.90
2023-02-24T01:10:04.835Z,6.00
2023-02-24T01:17:09.323Z,4.50
2023-02-24T01:24:15.527Z,3.97
2023-02-24T01:31:20.845Z,3.60
2023-02-24T01:38:26.430Z,2.80
2023-02-24T01:45:36.638Z,2.67
2023-02-24T01:52:49.061Z,2.33
2023-02-24T01:59:54.651Z,2.70
2023-02-24T02:07:11.119Z,2.63
2023-02-24T02:14:17.608Z,2.47
2023-02-24T02:21:40.170Z,2.40
2023-02-24T02:29:21.600Z,3.10
2023-02-24T02:36:55.525Z,2.33
2023-02-24T02:44:15.438Z,2.00
2023-02-24T02:51:38.817Z,2.23
2023-02-24T02:59:14.062Z,1.97
2023-02-24T03:06:22.410Z,1.60
2023-02-24T03:13:28.099Z,2.30
2023-02-24T03:20:38.328Z,1.73
2023-02-24T03:27:57.078Z,2.27
2023-02-24T03:35:17.026Z,2.00
2023-02-24T03:42:20.642Z,2.73
2023-02-24T03:49:25.221Z,2.47
2023-02-24T03:56:46.649Z,2.10
2023-02-24T04:04:07.344Z,2.83
2023-02-24T04:11:22.569Z,2.33
2023-02-24T04:18:55.619Z,3.70
2023-02-24T04:26:02.436Z,3.00
2023-02-24T04:33:12.710Z,3.17
2023-02-24T04:40:21.970Z,3.77
2023-02-24T04:47:28.883Z,2.53
2023-02-24T04:54:34.762Z,2.83
2023-02-24T05:01:41.010Z,1.93
2023-02-24T05:08:44.220Z,2.43
2023-02-24T05:15:50.593Z,2.67
2023-02-24T05:22:55.149Z,1.90
2023-02-24T05:29:58.804Z,1.90
2023-02-24T05:37:10.555Z,1.67
2023-02-24T05:44:14.168Z,1.47
2023-02-24T05:51:18.983Z,1.53
2023-02-24T05:58:24.434Z,1.13
2023-02-24T06:05:28.049Z,1.27
2023-02-24T06:12:31.781Z,0.90
2023-02-24T06:19:35.397Z,1.33
2023-02-24T06:26:43.203Z,1.40
2023-02-24T06:33:46.742Z,0.80
2023-02-24T06:40:52.643Z,1.30
2023-02-24T06:47:55.834Z,3.07
2023-02-24T06:55:04.636Z,1.20
2023-02-24T07:02:08.211Z,1.50
2023-02-24T07:09:12.883Z,1.70
2023-02-24T07:16:16.155Z,1.40
2023-02-24T07:23:19.362Z,1.40
2023-02-24T07:30:22.622Z,1.30
2023-02-24T07:37:25.960Z,1.40
2023-02-24T07:44:30.006Z,1.70
2023-02-24T07:51:33.210Z,1.83
2023-02-24T07:58:36.429Z,1.77
2023-02-24T08:05:39.673Z,1.57
2023-02-24T08:12:43.049Z,1.40
2023-02-24T08:19:46.773Z,1.10
2023-02-24T08:27:05.290Z,2.03
2023-02-24T08:34:16.014Z,1.40
2023-02-24T08:41:29.139Z,1.40
2023-02-24T08:48:37.090Z,1.83
2023-02-24T08:55:41.021Z,1.80
2023-02-24T09:02:45.057Z,2.23
2023-02-24T09:09:49.332Z,1.57
2023-02-24T09:17:02.604Z,2.27
2023-02-24T09:24:07.175Z,1.37
2023-02-24T09:31:17.086Z,3.67
2023-02-24T09:38:25.022Z,1.70
2023-02-24T09:45:53.437Z,1.50
2023-02-24T09:53:11.411Z,1.30
2023-02-24T10:00:48.646Z,1.20
2023-02-24T10:08:08.215Z,1.23
2023-02-24T10:15:32.058Z,1.80
2023-02-24T10:22:58.160Z,0.93
2023-02-24T10:30:11.032Z,0.80
2023-02-24T10:37:28.777Z,1.40
2023-02-24T10:44:38.864Z,1.07
2023-02-24T10:51:45.713Z,0.73
2023-02-24T10:58:51.983Z,1.10
2023-02-24T11:06:03.690Z,1.20
2023-02-24T11:13:38.845Z,1.20
2023-02-24T11:20:51.611Z,1.13
2023-02-24T11:28:02.510Z,0.73
2023-02-24T11:35:38.196Z,0.80
2023-02-24T11:42:48.850Z,1.30
2023-02-24T11:50:00.189Z,1.40
2023-02-24T11:57:18.898Z,0.93
2023-02-24T12:04:54.028Z,1.03
2023-02-24T12:12:11.194Z,1.37
2023-02-24T12:19:29.997Z,2.37
2023-02-24T12:26:55.676Z,0.73
2023-02-24T12:34:23.822Z,0.87
2023-02-24T12:41:34.904Z,0.80
2023-02-24T12:49:09.337Z,1.13
2023-02-24T12:56:37.229Z,1.40
2023-02-24T13:04:30.104Z,1.20
2023-02-24T13:12:11.474Z,1.30
2023-02-24T13:19:14.723Z,1.20
2023-02-24T13:26:37.250Z,1.40
2023-02-24T13:33:48.584Z,1.27
2023-02-24T13:40:53.455Z,1.20
2023-02-24T13:48:16.890Z,0.77
2023-02-24T13:55:59.573Z,1.13
2023-02-24T14:03:23.027Z,1.63
2023-02-24T14:10:49.015Z,1.10
2023-02-24T14:17:54.320Z,1.27
2023-02-24T14:25:03.846Z,1.30
2023-02-24T14:32:15.576Z,1.63
2023-02-24T14:39:34.273Z,1.63
2023-02-24T14:46:51.721Z,1.00
2023-02-24T14:54:02.251Z,0.93
2023-02-24T15:01:43.188Z,1.93
2023-02-24T15:08:48.202Z,1.03
2023-02-24T15:16:28.855Z,1.10
2023-02-24T15:23:38.106Z,1.27
2023-02-24T15:30:41.287Z,1.23
2023-02-24T15:37:50.180Z,1.23
2023-02-24T15:44:57.298Z,0.87
2023-02-24T15:52:05.894Z,0.80
2023-02-24T15:59:09.122Z,1.77
2023-02-24T16:06:16.366Z,1.57
2023-02-24T16:13:25.981Z,1.17
2023-02-24T16:20:31.304Z,1.83
2023-02-24T16:27:43.802Z,1.70
2023-02-24T16:34:47.387Z,1.97
2023-02-24T16:41:52.766Z,2.93
2023-02-24T16:48:56.430Z,2.90
2023-02-24T16:55:59.709Z,3.70
2023-02-24T17:03:03.677Z,2.57
2023-02-24T17:10:07.165Z,1.83
2023-02-24T17:17:14.595Z,1.97
2023-02-24T17:24:19.702Z,2.70
2023-02-24T17:31:32.358Z,4.10
2023-02-24T17:38:35.927Z,3.50
2023-02-24T17:45:42.766Z,6.30
2023-02-24T17:52:47.066Z,3.43
2023-02-24T17:59:53.152Z,6.53
2023-02-24T18:07:04.412Z,7.63
2023-02-24T18:14:07.842Z,7.10
2023-02-24T18:21:12.278Z,5.40
2023-02-24T18:28:15.507Z,9.73
2023-02-24T18:35:21.797Z,6.70
2023-02-24T18:42:29.868Z,5.90
2023-02-24T18:49:36.258Z,6.23
2023-02-24T18:56:39.623Z,7.80
2023-02-24T19:03:43.414Z,9.20
2023-02-24T19:10:55.838Z,7.83
2023-02-24T19:18:01.532Z,9.77
2023-02-24T19:25:10.116Z,9.70
2023-02-24T19:32:33.577Z,7.37
2023-02-24T19:39:37.391Z,7.40
2023-02-24T19:46:46.582Z,5.43
2023-02-24T19:53:49.799Z,12.50
2023-02-24T20:00:57.960Z,12.97
2023-02-24T20:08:04.074Z,9.97
2023-02-24T20:15:10.709Z,11.07
2023-02-24T20:22:15.797Z,7.07
2023-02-24T20:29:29.523Z,10.73
2023-02-24T20:36:33.285Z,8.07
2023-02-24T20:43:36.657Z,12.83
2023-02-24T20:50:39.901Z,13.60
2023-02-24T20:57:47.968Z,12.95
2023-02-24T21:05:00.025Z,14.57
2023-02-24T21:12:12.612Z,6.27
2023-02-24T21:19:22.238Z,16.40
2023-02-24T21:26:30.473Z,8.60
2023-02-24T21:33:34.162Z,13.77
2023-02-24T21:40:37.742Z,8.40
2023-02-24T21:47:42.452Z,8.47
2023-02-24T21:54:50.496Z,5.73
2023-02-24T22:01:59.168Z,11.40
2023-02-24T22:09:09.792Z,10.67
2023-02-24T22:16:15.696Z,6.23
2023-02-24T22:23:20.230Z,8.80
2023-02-24T22:30:23.555Z,8.80
2023-02-24T22:37:32.019Z,8.77
2023-02-24T22:44:35.417Z,7.73
2023-02-24T22:51:38.568Z,6.97
2023-02-24T22:58:41.940Z,7.37
2023-02-24T23:05:45.169Z,4.70
2023-02-24T23:12:48.781Z,4.63
2023-02-24T23:19:52.768Z,5.40
2023-02-24T23:26:57.662Z,2.73
2023-02-24T23:34:03.773Z,2.37
2023-02-24T23:41:09.809Z,2.57
2023-02-24T23:48:14.925Z,1.80
2023-02-24T23:55:19.719Z,2.60
